sensor_id;sensor_type;location;lat;lon;timestamp;pressure;altitude;pressure_sealevel;temperature;humidity
51178;BME280;37243;49.814;8.652;2023-02-04T00:00:29;101570.47;;;27.04;30.74
51178;BME280;37243;49.814;8.652;2023-02-04T00:03:01;101576.50;;;27.06;30.62
51178;BME280;37243;49.814;8.652;2023-02-04T00:05:29;101572.00;;;27.10;30.62
51178;BME280;37243;49.814;8.652;2023-02-04T00:07:57;101579.97;;;27.12;30.26
51178;BME280;37243;49.814;8.652;2023-02-04T00:10:26;101578.53;;;27.14;30.10
51178;BME280;37243;49.814;8.652;2023-02-04T00:12:57;101588.44;;;27.15;30.54
51178;BME280;37243;49.814;8.652;2023-02-04T00:15:25;101586.19;;;27.17;30.50
51178;BME280;37243;49.814;8.652;2023-02-04T00:17:53;101591.09;;;27.20;30.75
51178;BME280;37243;49.814;8.652;2023-02-04T00:20:22;101599.25;;;27.25;30.00
51178;BME280;37243;49.814;8.652;2023-02-04T00:22:50;101594.28;;;27.27;30.59
51178;BME280;37243;49.814;8.652;2023-02-04T00:25:19;101597.53;;;27.29;30.33
51178;BME280;37243;49.814;8.652;2023-02-04T00:27:47;101598.38;;;27.30;30.50
51178;BME280;37243;49.814;8.652;2023-02-04T00:30:18;101593.38;;;27.32;29.86
51178;BME280;37243;49.814;8.652;2023-02-04T00:32:46;101596.34;;;27.35;29.90
51178;BME280;37243;49.814;8.652;2023-02-04T00:35:18;101594.69;;;27.34;30.17
51178;BME280;37243;49.814;8.652;2023-02-04T00:37:47;101598.56;;;27.33;30.25
51178;BME280;37243;49.814;8.652;2023-02-04T00:40:15;101604.28;;;27.37;29.83
51178;BME280;37243;49.814;8.652;2023-02-04T00:42:43;101592.97;;;27.38;30.36
51178;BME280;37243;49.814;8.652;2023-02-04T00:45:12;101600.91;;;27.40;29.84
51178;BME280;37243;49.814;8.652;2023-02-04T00:47:43;101612.25;;;27.38;30.42
51178;BME280;37243;49.814;8.652;2023-02-04T00:50:11;101608.69;;;27.38;30.44
51178;BME280;37243;49.814;8.652;2023-02-04T00:52:39;101618.00;;;27.42;30.66
51178;BME280;37243;49.814;8.652;2023-02-04T00:55:08;101614.44;;;27.41;29.55
51178;BME280;37243;49.814;8.652;2023-02-04T00:57:38;101616.34;;;27.41;30.27
51178;BME280;37243;49.814;8.652;2023-02-04T01:00:08;101614.13;;;27.43;30.01
51178;BME280;37243;49.814;8.652;2023-02-04T01:02:36;101621.56;;;27.42;29.59
51178;BME280;37243;49.814;8.652;2023-02-04T01:05:08;101618.00;;;27.42;29.98
51178;BME280;37243;49.814;8.652;2023-02-04T01:07:36;101624.31;;;27.42;29.82
51178;BME280;37243;49.814;8.652;2023-02-04T01:10:05;101625.34;;;27.46;29.80
51178;BME280;37243;49.814;8.652;2023-02-04T01:12:33;101630.06;;;27.46;29.88
51178;BME280;37243;49.814;8.652;2023-02-04T01:15:02;101627.00;;;27.47;29.92
51178;BME280;37243;49.814;8.652;2023-02-04T01:17:30;101628.94;;;27.47;30.11
51178;BME280;37243;49.814;8.652;2023-02-04T01:19:58;101625.34;;;27.46;29.75
51178;BME280;37243;49.814;8.652;2023-02-04T01:22:29;101628.63;;;27.48;29.49
51178;BME280;37243;49.814;8.652;2023-02-04T01:24:59;101643.53;;;27.47;29.78
51178;BME280;37243;49.814;8.652;2023-02-04T01:27:27;101645.75;;;27.45;29.60
51178;BME280;37243;49.814;8.652;2023-02-04T01:29:55;101652.09;;;27.46;29.89
51178;BME280;37243;49.814;8.652;2023-02-04T01:32:24;101653.75;;;27.47;29.79
51178;BME280;37243;49.814;8.652;2023-02-04T01:34:52;101655.69;;;27.46;30.13
51178;BME280;37243;49.814;8.652;2023-02-04T01:37:20;101655.34;;;27.48;29.74
51178;BME280;37243;49.814;8.652;2023-02-04T01:39:51;101663.63;;;27.48;29.40
51178;BME280;37243;49.814;8.652;2023-02-04T01:42:19;101667.22;;;27.48;29.44
51178;BME280;37243;49.814;8.652;2023-02-04T01:44:48;101665.59;;;27.47;30.01
51178;BME280;37243;49.814;8.652;2023-02-04T01:47:17;101672.44;;;27.50;29.85
51178;BME280;37243;49.814;8.652;2023-02-04T01:49:46;101675.19;;;27.50;29.35
51178;BME280;37243;49.814;8.652;2023-02-04T01:52:16;101671.91;;;27.48;29.35
51178;BME280;37243;49.814;8.652;2023-02-04T01:54:45;101664.78;;;27.47;29.70
51178;BME280;37243;49.814;8.652;2023-02-04T01:57:16;101656.19;;;27.48;29.48
51178;BME280;37243;49.814;8.652;2023-02-04T01:59:46;101653.44;;;27.48;29.37
51178;BME280;37243;49.814;8.652;2023-02-04T02:02:39;101649.06;;;27.47;29.76
51178;BME280;37243;49.814;8.652;2023-02-04T02:05:09;101651.50;;;27.49;29.71
51178;BME280;37243;49.814;8.652;2023-02-04T02:07:38;101661.41;;;27.50;29.76
51178;BME280;37243;49.814;8.652;2023-02-04T02:10:08;101658.66;;;27.50;29.39
51178;BME280;37243;49.814;8.652;2023-02-04T02:12:40;101659.44;;;27.50;29.66
51178;BME280;37243;49.814;8.652;2023-02-04T02:15:11;101657.81;;;27.49;30.01
51178;BME280;37243;49.814;8.652;2023-02-04T02:17:39;101656.19;;;27.48;29.26
51178;BME280;37243;49.814;8.652;2023-02-04T02:20:10;101658.94;;;27.48;30.04
51178;BME280;37243;49.814;8.652;2023-02-04T02:22:46;101664.16;;;27.50;29.71
51178;BME280;37243;49.814;8.652;2023-02-04T02:25:20;101670.47;;;27.50;29.57
51178;BME280;37243;49.814;8.652;2023-02-04T02:27:48;101670.78;;;27.49;29.29
51178;BME280;37243;49.814;8.652;2023-02-04T02:30:17;101666.59;;;27.51;29.28
51178;BME280;37243;49.814;8.652;2023-02-04T02:32:46;101674.38;;;27.49;29.28
51178;BME280;37243;49.814;8.652;2023-02-04T02:35:15;101664.97;;;27.50;29.91
51178;BME280;37243;49.814;8.652;2023-02-04T02:37:44;101670.47;;;27.50;29.68
51178;BME280;37243;49.814;8.652;2023-02-04T02:40:13;101666.59;;;27.51;29.85
51178;BME280;37243;49.814;8.652;2023-02-04T02:42:47;101666.09;;;27.49;29.69
51178;BME280;37243;49.814;8.652;2023-02-04T02:45:21;101670.47;;;27.50;30.00
51178;BME280;37243;49.814;8.652;2023-02-04T02:47:50;101676.31;;;27.49;29.64
51178;BME280;37243;49.814;8.652;2023-02-04T02:50:20;101666.09;;;27.49;29.96
51178;BME280;37243;49.814;8.652;2023-02-04T02:52:50;101669.34;;;27.51;29.56
51178;BME280;37243;49.814;8.652;2023-02-04T02:55:21;101680.69;;;27.50;29.54
51178;BME280;37243;49.814;8.652;2023-02-04T02:57:54;101687.00;;;27.50;29.39
51178;BME280;37243;49.814;8.652;2023-02-04T03:00:25;101684.25;;;27.50;29.78
51178;BME280;37243;49.814;8.652;2023-02-04T03:03:04;101689.75;;;27.50;29.17
51178;BME280;37243;49.814;8.652;2023-02-04T03:05:36;101687.00;;;27.50;29.79
51178;BME280;37243;49.814;8.652;2023-02-04T03:08:08;101697.25;;;27.50;29.13
51178;BME280;37243;49.814;8.652;2023-02-04T03:10:37;101709.06;;;27.50;29.09
51178;BME280;37243;49.814;8.652;2023-02-04T03:13:08;101714.56;;;27.50;29.78
51178;BME280;37243;49.814;8.652;2023-02-04T03:15:37;101722.56;;;27.52;29.14
51178;BME280;37243;49.814;8.652;2023-02-04T03:18:06;101733.88;;;27.50;29.90
51178;BME280;37243;49.814;8.652;2023-02-04T03:20:35;101729.19;;;27.51;29.49
51178;BME280;37243;49.814;8.652;2023-02-04T03:23:04;101732.75;;;27.51;29.14
51178;BME280;37243;49.814;8.652;2023-02-04T03:25:32;101737.16;;;27.52;29.75
51178;BME280;37243;49.814;8.652;2023-02-04T03:28:01;101729.50;;;27.49;29.50
51178;BME280;37243;49.814;8.652;2023-02-04T03:30:32;101732.75;;;27.51;29.40
51178;BME280;37243;49.814;8.652;2023-02-04T03:33:00;101735.50;;;27.51;29.44
51178;BME280;37243;49.814;8.652;2023-02-04T03:35:28;101733.88;;;27.50;29.21
51178;BME280;37243;49.814;8.652;2023-02-04T03:37:56;101740.53;;;27.49;29.62
51178;BME280;37243;49.814;8.652;2023-02-04T03:40:25;101740.53;;;27.49;29.77
51178;BME280;37243;49.814;8.652;2023-02-04T03:42:54;101738.28;;;27.51;29.47
51178;BME280;37243;49.814;8.652;2023-02-04T03:45:22;101737.44;;;27.51;29.00
51178;BME280;37243;49.814;8.652;2023-02-04T03:47:53;101741.84;;;27.52;29.71
51178;BME280;37243;49.814;8.652;2023-02-04T03:50:21;101746.84;;;27.50;29.74
51178;BME280;37243;49.814;8.652;2023-02-04T03:52:49;101742.97;;;27.51;29.01
51178;BME280;37243;49.814;8.652;2023-02-04T03:55:18;101742.97;;;27.51;29.80
51178;BME280;37243;49.814;8.652;2023-02-04T03:57:46;101748.47;;;27.51;29.65
51178;BME280;37243;49.814;8.652;2023-02-04T04:00:14;101754.81;;;27.51;29.77
51178;BME280;37243;49.814;8.652;2023-02-04T04:02:43;101767.75;;;27.51;29.03
51178;BME280;37243;49.814;8.652;2023-02-04T04:05:14;101758.66;;;27.50;29.31
51178;BME280;37243;49.814;8.652;2023-02-04T04:07:43;101769.41;;;27.52;29.36
51178;BME280;37243;49.814;8.652;2023-02-04T04:10:11;101776.84;;;27.51;29.36
51178;BME280;37243;49.814;8.652;2023-02-04T04:12:39;101773.81;;;27.53;29.65
51178;BME280;37243;49.814;8.652;2023-02-04T04:15:08;101781.25;;;27.52;29.29
51178;BME280;37243;49.814;8.652;2023-02-04T04:17:37;101773.81;;;27.53;29.00
51178;BME280;37243;49.814;8.652;2023-02-04T04:20:05;101783.19;;;27.52;29.10
51178;BME280;37243;49.814;8.652;2023-02-04T04:22:36;101788.72;;;27.52;28.93
51178;BME280;37243;49.814;8.652;2023-02-04T04:25:06;101786.78;;;27.52;29.03
51178;BME280;37243;49.814;8.652;2023-02-04T04:27:34;101798.63;;;27.53;29.28
51178;BME280;37243;49.814;8.652;2023-02-04T04:30:03;101806.91;;;27.53;29.30
51178;BME280;37243;49.814;8.652;2023-02-04T04:32:31;101809.94;;;27.51;29.71
51178;BME280;37243;49.814;8.652;2023-02-04T04:34:59;101809.13;;;27.51;29.30
51178;BME280;37243;49.814;8.652;2023-02-04T04:37:28;101813.81;;;27.50;29.50
51178;BME280;37243;49.814;8.652;2023-02-04T04:39:59;101816.56;;;27.50;29.27
51178;BME280;37243;49.814;8.652;2023-02-04T04:42:27;101811.59;;;27.52;29.01
51178;BME280;37243;49.814;8.652;2023-02-04T04:44:55;101809.66;;;27.53;29.24
51178;BME280;37243;49.814;8.652;2023-02-04T04:47:23;101803.31;;;27.52;29.39
51178;BME280;37243;49.814;8.652;2023-02-04T04:49:52;101809.44;;;27.49;29.25
51178;BME280;37243;49.814;8.652;2023-02-04T04:52:20;101798.41;;;27.49;29.28
51178;BME280;37243;49.814;8.652;2023-02-04T04:54:48;101801.66;;;27.51;28.79
51178;BME280;37243;49.814;8.652;2023-02-04T04:57:19;101797.81;;;27.52;29.18
51178;BME280;37243;49.814;8.652;2023-02-04T04:59:47;101795.03;;;27.52;28.84
51178;BME280;37243;49.814;8.652;2023-02-04T05:02:15;101789.00;;;27.50;29.19
51178;BME280;37243;49.814;8.652;2023-02-04T05:04:44;101792.56;;;27.51;29.55
51178;BME280;37243;49.814;8.652;2023-02-04T05:07:12;101791.75;;;27.50;29.18
51178;BME280;37243;49.814;8.652;2023-02-04T05:09:40;101794.50;;;27.50;29.27
51178;BME280;37243;49.814;8.652;2023-02-04T05:12:08;101807.19;;;27.51;29.26
51178;BME280;37243;49.814;8.652;2023-02-04T05:14:40;101808.81;;;27.52;29.42
51178;BME280;37243;49.814;8.652;2023-02-04T05:17:08;101805.25;;;27.52;28.87
51178;BME280;37243;49.814;8.652;2023-02-04T05:19:36;101800.03;;;27.50;29.54
51178;BME280;37243;49.814;8.652;2023-02-04T05:22:05;101811.88;;;27.51;28.76
51178;BME280;37243;49.814;8.652;2023-02-04T05:24:33;101814.63;;;27.51;28.89
51178;BME280;37243;49.814;8.652;2023-02-04T05:27:01;101822.59;;;27.52;28.84
51178;BME280;37243;49.814;8.652;2023-02-04T05:29:29;101833.09;;;27.50;29.48
51178;BME280;37243;49.814;8.652;2023-02-04T05:32:00;101823.72;;;27.51;29.24
51178;BME280;37243;49.814;8.652;2023-02-04T05:34:29;101831.16;;;27.51;29.63
51178;BME280;37243;49.814;8.652;2023-02-04T05:36:57;101832.00;;;27.51;29.28
51178;BME280;37243;49.814;8.652;2023-02-04T05:39:25;101844.44;;;27.49;28.80
51178;BME280;37243;49.814;8.652;2023-02-04T05:41:53;101838.94;;;27.49;29.35
51178;BME280;37243;49.814;8.652;2023-02-04T05:44:21;101840.56;;;27.50;29.09
51178;BME280;37243;49.814;8.652;2023-02-04T05:46:50;101838.09;;;27.48;29.13
51178;BME280;37243;49.814;8.652;2023-02-04T05:49:21;101832.00;;;27.51;29.52
51178;BME280;37243;49.814;8.652;2023-02-04T05:51:49;101841.69;;;27.49;29.09
51178;BME280;37243;49.814;8.652;2023-02-04T05:54:17;101848.03;;;27.49;29.36
51178;BME280;37243;49.814;8.652;2023-02-04T05:56:46;101849.63;;;27.50;29.10
51178;BME280;37243;49.814;8.652;2023-02-04T05:59:16;101853.53;;;27.49;29.46
51178;BME280;37243;49.814;8.652;2023-02-04T06:01:44;101851.59;;;27.50;28.84
51178;BME280;37243;49.814;8.652;2023-02-04T06:04:12;101849.13;;;27.48;29.49
51178;BME280;37243;49.814;8.652;2023-02-04T06:06:43;101854.63;;;27.48;28.83
51178;BME280;37243;49.814;8.652;2023-02-04T06:09:12;101855.78;;;27.47;29.14
51178;BME280;37243;49.814;8.652;2023-02-04T06:11:40;101864.56;;;27.49;29.09
51178;BME280;37243;49.814;8.652;2023-02-04T06:14:09;101866.19;;;27.50;28.70
51178;BME280;37243;49.814;8.652;2023-02-04T06:16:37;101870.34;;;27.48;29.39
51178;BME280;37243;49.814;8.652;2023-02-04T06:19:06;101879.44;;;27.48;29.42
51178;BME280;37243;49.814;8.652;2023-02-04T06:21:34;101882.19;;;27.48;29.42
51178;BME280;37243;49.814;8.652;2023-02-04T06:24:05;101884.69;;;27.50;29.13
51178;BME280;37243;49.814;8.652;2023-02-04T06:26:33;101890.47;;;27.48;29.17
51178;BME280;37243;49.814;8.652;2023-02-04T06:29:02;101889.38;;;27.49;28.78
51178;BME280;37243;49.814;8.652;2023-02-04T06:31:30;101894.88;;;27.49;29.08
51178;BME280;37243;49.814;8.652;2023-02-04T06:33:58;101894.88;;;27.49;29.15
51178;BME280;37243;49.814;8.652;2023-02-04T06:36:26;101896.50;;;27.50;28.76
51178;BME280;37243;49.814;8.652;2023-02-04T06:38:55;101889.66;;;27.48;29.05
51178;BME280;37243;49.814;8.652;2023-02-04T06:41:25;101887.44;;;27.50;29.37
51178;BME280;37243;49.814;8.652;2023-02-04T06:43:54;101886.88;;;27.48;28.74
51178;BME280;37243;49.814;8.652;2023-02-04T06:46:22;101886.59;;;27.49;29.06
51178;BME280;37243;49.814;8.652;2023-02-04T06:48:50;101888.53;;;27.49;29.39
51178;BME280;37243;49.814;8.652;2023-02-04T06:51:19;101892.41;;;27.48;28.99
51178;BME280;37243;49.814;8.652;2023-02-04T06:53:50;101889.38;;;27.49;28.98
51178;BME280;37243;49.814;8.652;2023-02-04T06:56:18;101898.16;;;27.51;28.67
51178;BME280;37243;49.814;8.652;2023-02-04T06:58:49;101894.88;;;27.49;29.31
51178;BME280;37243;49.814;8.652;2023-02-04T07:01:17;101889.06;;;27.51;29.34
51178;BME280;37243;49.814;8.652;2023-02-04T07:03:45;101898.75;;;27.48;29.14
51178;BME280;37243;49.814;8.652;2023-02-04T07:06:13;101908.66;;;27.49;29.33
51178;BME280;37243;49.814;8.652;2023-02-04T07:08:42;101908.66;;;27.49;28.93
51178;BME280;37243;49.814;8.652;2023-02-04T07:11:11;101915.78;;;27.50;28.92
51178;BME280;37243;49.814;8.652;2023-02-04T07:13:40;101929.81;;;27.54;29.00
51178;BME280;37243;49.814;8.652;2023-02-04T07:16:11;101921.25;;;27.55;29.25
51178;BME280;37243;49.814;8.652;2023-02-04T07:18:39;101928.47;;;27.51;28.56
51178;BME280;37243;49.814;8.652;2023-02-04T07:21:07;101935.91;;;27.51;29.10
51178;BME280;37243;49.814;8.652;2023-02-04T07:23:35;101936.75;;;27.51;28.97
51178;BME280;37243;49.814;8.652;2023-02-04T07:26:04;101943.91;;;27.52;29.12
51178;BME280;37243;49.814;8.652;2023-02-04T07:28:32;101955.44;;;27.54;29.14
51178;BME280;37243;49.814;8.652;2023-02-04T07:31:01;101955.75;;;27.53;29.28
51178;BME280;37243;49.814;8.652;2023-02-04T07:33:32;101952.44;;;27.51;29.35
51178;BME280;37243;49.814;8.652;2023-02-04T07:36:02;101953.28;;;27.51;29.07
51178;BME280;37243;49.814;8.652;2023-02-04T07:38:31;101960.44;;;27.52;28.74
51178;BME280;37243;49.814;8.652;2023-02-04T07:40:59;101971.47;;;27.52;29.29
51178;BME280;37243;49.814;8.652;2023-02-04T07:43:27;101967.88;;;27.52;29.07
51178;BME280;37243;49.814;8.652;2023-02-04T07:45:55;101973.09;;;27.53;29.18
51178;BME280;37243;49.814;8.652;2023-02-04T07:48:24;101970.06;;;27.55;28.72
51178;BME280;37243;49.814;8.652;2023-02-04T07:50:54;101964.22;;;27.56;29.41
51178;BME280;37243;49.814;8.652;2023-02-04T07:53:23;101975.81;;;27.58;28.94
51178;BME280;37243;49.814;8.652;2023-02-04T07:55:51;101983.53;;;27.56;28.59
51178;BME280;37243;49.814;8.652;2023-02-04T07:58:19;101986.81;;;27.58;28.97
51178;BME280;37243;49.814;8.652;2023-02-04T08:00:48;101985.41;;;27.61;29.01
51178;BME280;37243;49.814;8.652;2023-02-04T08:05:43;101995.84;;;27.64;28.70
51178;BME280;37243;49.814;8.652;2023-02-04T08:08:14;102006.56;;;27.66;28.89
51178;BME280;37243;49.814;8.652;2023-02-04T08:10:42;102010.97;;;27.67;29.27
51178;BME280;37243;49.814;8.652;2023-02-04T08:13:10;102002.09;;;27.70;29.16
51178;BME280;37243;49.814;8.652;2023-02-04T08:15:39;102006.47;;;27.71;29.10
51178;BME280;37243;49.814;8.652;2023-02-04T08:18:10;102013.38;;;27.73;28.87
51178;BME280;37243;49.814;8.652;2023-02-04T08:20:38;102016.91;;;27.74;28.78
51178;BME280;37243;49.814;8.652;2023-02-04T08:23:06;102019.41;;;27.75;29.18
51178;BME280;37243;49.814;8.652;2023-02-04T08:25:37;102029.59;;;27.75;28.86
51178;BME280;37243;49.814;8.652;2023-02-04T08:28:05;102026.56;;;27.76;29.05
51178;BME280;37243;49.814;8.652;2023-02-04T08:30:34;102021.06;;;27.76;29.08
51178;BME280;37243;49.814;8.652;2023-02-04T08:33:02;102019.41;;;27.75;28.72
51178;BME280;37243;49.814;8.652;2023-02-04T08:35:30;102027.34;;;27.77;28.52
51178;BME280;37243;49.814;8.652;2023-02-04T08:37:59;102039.22;;;27.77;29.08
51178;BME280;37243;49.814;8.652;2023-02-04T08:40:27;102040.03;;;27.78;28.46
51178;BME280;37243;49.814;8.652;2023-02-04T08:42:58;102041.69;;;27.79;28.39
51178;BME280;37243;49.814;8.652;2023-02-04T08:45:26;102043.91;;;27.77;28.40
51178;BME280;37243;49.814;8.652;2023-02-04T08:47:55;102037.06;;;27.74;29.11
51178;BME280;37243;49.814;8.652;2023-02-04T08:50:23;102053.31;;;27.76;28.71
51178;BME280;37243;49.814;8.652;2023-02-04T08:52:53;102059.94;;;27.75;28.59
51178;BME280;37243;49.814;8.652;2023-02-04T08:55:21;102059.94;;;27.75;28.87
51178;BME280;37243;49.814;8.652;2023-02-04T08:57:49;102048.91;;;27.75;28.66
51178;BME280;37243;49.814;8.652;2023-02-04T09:00:20;102055.75;;;27.77;28.37
51178;BME280;37243;49.814;8.652;2023-02-04T09:02:49;102063.22;;;27.77;28.38
51178;BME280;37243;49.814;8.652;2023-02-04T09:05:17;102070.97;;;27.75;28.42
51178;BME280;37243;49.814;8.652;2023-02-04T09:07:45;102066.28;;;27.75;28.53
51178;BME280;37243;49.814;8.652;2023-02-04T09:10:14;102070.38;;;27.78;28.65
51178;BME280;37243;49.814;8.652;2023-02-04T09:12:42;102069.28;;;27.79;28.33
51178;BME280;37243;49.814;8.652;2023-02-04T09:15:11;102081.13;;;27.79;28.30
51178;BME280;37243;49.814;8.652;2023-02-04T09:17:42;102074.47;;;27.80;28.37
51178;BME280;37243;49.814;8.652;2023-02-04T09:20:11;102074.78;;;27.79;28.97
51178;BME280;37243;49.814;8.652;2023-02-04T09:22:39;102072.53;;;27.81;28.69
51178;BME280;37243;49.814;8.652;2023-02-04T09:25:08;102071.72;;;27.80;28.84
51178;BME280;37243;49.814;8.652;2023-02-04T09:27:36;102071.72;;;27.80;28.26
51178;BME280;37243;49.814;8.652;2023-02-04T09:30:05;102071.44;;;27.82;28.83
51178;BME280;37243;49.814;8.652;2023-02-04T09:32:33;102065.69;;;27.78;28.88
51178;BME280;37243;49.814;8.652;2023-02-04T09:35:04;102073.13;;;27.78;28.76
51178;BME280;37243;49.814;8.652;2023-02-04T09:37:33;102080.91;;;27.76;28.68
51178;BME280;37243;49.814;8.652;2023-02-04T09:40:01;102084.47;;;27.76;29.11
51178;BME280;37243;49.814;8.652;2023-02-04T09:42:29;102080.91;;;27.76;28.37
51178;BME280;37243;49.814;8.652;2023-02-04T09:44:58;102091.09;;;27.75;28.44
51178;BME280;37243;49.814;8.652;2023-02-04T09:47:27;102091.09;;;27.75;29.12
51178;BME280;37243;49.814;8.652;2023-02-04T09:49:56;102095.78;;;27.75;29.12
51178;BME280;37243;49.814;8.652;2023-02-04T09:52:28;102103.22;;;27.74;28.98
51178;BME280;37243;49.814;8.652;2023-02-04T09:54:58;102107.13;;;27.73;29.10
51178;BME280;37243;49.814;8.652;2023-02-04T09:57:26;102116.19;;;27.74;28.39
51178;BME280;37243;49.814;8.652;2023-02-04T10:00:05;102113.44;;;27.74;28.84
51178;BME280;37243;49.814;8.652;2023-02-04T10:02:41;102112.84;;;27.77;28.84
51178;BME280;37243;49.814;8.652;2023-02-04T10:05:13;102112.84;;;27.77;29.04
51178;BME280;37243;49.814;8.652;2023-02-04T10:07:45;102125.84;;;27.76;28.79
51178;BME280;37243;49.814;8.652;2023-02-04T10:10:15;102122.78;;;27.78;28.38
51178;BME280;37243;49.814;8.652;2023-02-04T10:12:50;102120.59;;;27.75;28.76
51178;BME280;37243;49.814;8.652;2023-02-04T10:15:19;102123.38;;;27.75;28.38
51178;BME280;37243;49.814;8.652;2023-02-04T10:17:51;102119.50;;;27.76;28.59
51178;BME280;37243;49.814;8.652;2023-02-04T10:20:21;102123.88;;;27.77;28.37
51178;BME280;37243;49.814;8.652;2023-02-04T10:22:55;102132.16;;;27.77;28.51
51178;BME280;37243;49.814;8.652;2023-02-04T10:25:24;102131.38;;;27.76;28.45
51178;BME280;37243;49.814;8.652;2023-02-04T10:27:55;102131.63;;;27.75;28.78
51178;BME280;37243;49.814;8.652;2023-02-04T10:30:25;102140.75;;;27.75;29.09
51178;BME280;37243;49.814;8.652;2023-02-04T10:32:54;102135.22;;;27.75;28.46
51178;BME280;37243;49.814;8.652;2023-02-04T10:35:22;102147.09;;;27.76;28.34
51178;BME280;37243;49.814;8.652;2023-02-04T10:38:05;102138.25;;;27.74;28.94
51178;BME280;37243;49.814;8.652;2023-02-04T10:40:35;102145.44;;;27.75;28.32
51178;BME280;37243;49.814;8.652;2023-02-04T10:43:07;102153.41;;;27.76;28.78
51178;BME280;37243;49.814;8.652;2023-02-04T10:45:37;102138.81;;;27.76;28.80
51178;BME280;37243;49.814;8.652;2023-02-04T10:48:05;102145.94;;;27.77;28.66
51178;BME280;37243;49.814;8.652;2023-02-04T10:50:34;102136.56;;;27.78;28.78
51178;BME280;37243;49.814;8.652;2023-02-04T10:53:07;102141.56;;;27.76;28.81
51178;BME280;37243;49.814;8.652;2023-02-04T10:55:50;102144.31;;;27.76;28.37
51178;BME280;37243;49.814;8.652;2023-02-04T10:58:23;102138.50;;;27.77;28.52
51178;BME280;37243;49.814;8.652;2023-02-04T11:00:53;102137.41;;;27.78;28.67
51178;BME280;37243;49.814;8.652;2023-02-04T11:03:23;102139.31;;;27.78;28.80
51178;BME280;37243;49.814;8.652;2023-02-04T11:05:55;102135.47;;;27.79;28.80
51178;BME280;37243;49.814;8.652;2023-02-04T11:08:29;102134.31;;;27.80;28.45
51178;BME280;37243;49.814;8.652;2023-02-04T11:11:02;102135.97;;;27.81;29.11
51178;BME280;37243;49.814;8.652;2023-02-04T11:13:39;102137.09;;;27.80;28.58
51178;BME280;37243;49.814;8.652;2023-02-04T11:16:11;102137.91;;;27.80;28.83
51178;BME280;37243;49.814;8.652;2023-02-04T11:18:45;102136.28;;;27.79;28.96
51178;BME280;37243;49.814;8.652;2023-02-04T11:21:21;102137.41;;;27.78;28.56
51178;BME280;37243;49.814;8.652;2023-02-04T11:24:02;102140.97;;;27.79;28.68
51178;BME280;37243;49.814;8.652;2023-02-04T11:26:33;102140.16;;;27.78;28.66
51178;BME280;37243;49.814;8.652;2023-02-04T11:29:23;102135.47;;;27.79;29.03
51178;BME280;37243;49.814;8.652;2023-02-04T11:32:02;102135.47;;;27.79;29.07
51178;BME280;37243;49.814;8.652;2023-02-04T11:34:45;102134.31;;;27.80;28.79
51178;BME280;37243;49.814;8.652;2023-02-04T11:37:27;102138.75;;;27.81;29.49
51178;BME280;37243;49.814;8.652;2023-02-04T11:40:13;102139.03;;;27.79;28.78
51178;BME280;37243;49.814;8.652;2023-02-04T11:42:47;102139.31;;;27.78;28.98
51178;BME280;37243;49.814;8.652;2023-02-04T11:45:19;102141.25;;;27.77;28.95
51178;BME280;37243;49.814;8.652;2023-02-04T11:47:49;102141.56;;;27.76;28.95
51178;BME280;37243;49.814;8.652;2023-02-04T11:50:22;102136.06;;;27.76;28.84
51178;BME280;37243;49.814;8.652;2023-02-04T11:52:53;102139.31;;;27.78;29.29
51178;BME280;37243;49.814;8.652;2023-02-04T11:55:25;102136.06;;;27.76;29.32
51178;BME280;37243;49.814;8.652;2023-02-04T11:57:54;102141.84;;;27.74;28.71
51178;BME280;37243;49.814;8.652;2023-02-04T12:00:24;102139.91;;;27.75;28.88
51178;BME280;37243;49.814;8.652;2023-02-04T12:02:58;102150.94;;;27.75;28.78
51178;BME280;37243;49.814;8.652;2023-02-04T12:05:38;102145.44;;;27.75;28.56
51178;BME280;37243;49.814;8.652;2023-02-04T12:08:11;102142.09;;;27.78;29.05
51178;BME280;37243;49.814;8.652;2023-02-04T12:10:50;102155.03;;;27.77;29.11
51178;BME280;37243;49.814;8.652;2023-02-04T12:13:23;102147.59;;;27.78;28.46
51178;BME280;37243;49.814;8.652;2023-02-04T12:15:54;102150.88;;;27.80;28.81
51178;BME280;37243;49.814;8.652;2023-02-04T12:18:25;102143.72;;;27.79;29.05
51178;BME280;37243;49.814;8.652;2023-02-04T12:20:55;102153.63;;;27.80;28.69
51178;BME280;37243;49.814;8.652;2023-02-04T12:23:24;102153.63;;;27.80;28.93
51178;BME280;37243;49.814;8.652;2023-02-04T12:25:56;102153.34;;;27.81;28.07
51178;BME280;37243;49.814;8.652;2023-02-04T12:28:24;102153.63;;;27.80;27.63
51178;BME280;37243;49.814;8.652;2023-02-04T12:30:53;102159.97;;;27.80;28.45
51178;BME280;37243;49.814;8.652;2023-02-04T12:33:22;102160.81;;;27.81;28.41
51178;BME280;37243;49.814;8.652;2023-02-04T12:35:50;102153.13;;;27.78;28.25
51178;BME280;37243;49.814;8.652;2023-02-04T12:38:18;102152.84;;;27.79;28.54
51178;BME280;37243;49.814;8.652;2023-02-04T12:40:47;102151.69;;;27.80;28.64
51178;BME280;37243;49.814;8.652;2023-02-04T12:43:18;102150.59;;;27.81;28.60
51178;BME280;37243;49.814;8.652;2023-02-04T12:45:46;102156.94;;;27.82;28.25
51178;BME280;37243;49.814;8.652;2023-02-04T12:48:14;102151.41;;;27.82;28.04
51178;BME280;37243;49.814;8.652;2023-02-04T12:50:42;102160.81;;;27.81;28.55
51178;BME280;37243;49.814;8.652;2023-02-04T12:53:13;102154.97;;;27.82;28.11
51178;BME280;37243;49.814;8.652;2023-02-04T12:55:41;102158.88;;;27.81;28.28
51178;BME280;37243;49.814;8.652;2023-02-04T12:58:09;102160.50;;;27.82;28.12
51178;BME280;37243;49.814;8.652;2023-02-04T13:00:41;102160.81;;;27.81;28.85
51178;BME280;37243;49.814;8.652;2023-02-04T13:03:10;102160.28;;;27.79;28.28
51178;BME280;37243;49.814;8.652;2023-02-04T13:05:38;102155.88;;;27.78;28.95